sensor_id;sensor_type;location;lat;lon;timestamp;P1;durP1;ratioP1;P2;durP2;ratioP2
43154;SDS011;34212;51.018;13.586;2023-02-28T00:03:36;6.72;;;4.68;;
43154;SDS011;34212;51.018;13.586;2023-02-28T00:08:38;8.63;;;5.30;;
43154;SDS011;34212;51.018;13.586;2023-02-28T00:13:41;9.02;;;5.80;;
43154;SDS011;34212;51.018;13.586;2023-02-28T00:18:47;9.65;;;4.93;;
43154;SDS011;34212;51.018;13.586;2023-02-28T00:23:49;9.57;;;5.10;;
43154;SDS011;34212;51.018;13.586;2023-02-28T00:28:51;9.45;;;5.45;;
43154;SDS011;34212;51.018;13.586;2023-02-28T00:33:53;8.60;;;5.60;;
43154;SDS011;34212;51.018;13.586;2023-02-28T00:38:55;9.32;;;6.22;;
43154;SDS011;34212;51.018;13.586;2023-02-28T00:43:56;8.32;;;5.53;;
43154;SDS011;34212;51.018;13.586;2023-02-28T00:48:58;9.27;;;5.28;;
43154;SDS011;34212;51.018;13.586;2023-02-28T00:53:59;7.55;;;4.95;;
43154;SDS011;34212;51.018;13.586;2023-02-28T00:59:01;7.82;;;5.57;;
43154;SDS011;34212;51.018;13.586;2023-02-28T01:04:02;8.70;;;5.53;;
43154;SDS011;34212;51.018;13.586;2023-02-28T01:09:05;7.07;;;5.20;;
43154;SDS011;34212;51.018;13.586;2023-02-28T01:19:11;8.98;;;5.18;;
43154;SDS011;34212;51.018;13.586;2023-02-28T01:24:12;8.13;;;5.57;;
43154;SDS011;34212;51.018;13.586;2023-02-28T01:29:14;7.80;;;5.70;;
43154;SDS011;34212;51.018;13.586;2023-02-28T01:34:16;7.95;;;4.93;;
43154;SDS011;34212;51.018;13.586;2023-02-28T01:39:20;10.88;;;5.43;;
43154;SDS011;34212;51.018;13.586;2023-02-28T01:50:01;7.88;;;4.95;;
43154;SDS011;34212;51.018;13.586;2023-02-28T01:55:07;7.38;;;4.95;;
43154;SDS011;34212;51.018;13.586;2023-02-28T02:05:21;8.88;;;5.68;;
43154;SDS011;34212;51.018;13.586;2023-02-28T02:10:27;11.52;;;5.68;;
43154;SDS011;34212;51.018;13.586;2023-02-28T02:15:34;8.00;;;5.30;;
43154;SDS011;34212;51.018;13.586;2023-02-28T02:31:38;9.77;;;5.68;;
43154;SDS011;34212;51.018;13.586;2023-02-28T02:42:11;8.77;;;5.72;;
43154;SDS011;34212;51.018;13.586;2023-02-28T02:47:17;10.32;;;5.68;;
43154;SDS011;34212;51.018;13.586;2023-02-28T02:52:23;8.70;;;5.25;;
43154;SDS011;34212;51.018;13.586;2023-02-28T02:57:35;10.50;;;5.68;;
43154;SDS011;34212;51.018;13.586;2023-02-28T03:02:41;9.30;;;5.88;;
43154;SDS011;34212;51.018;13.586;2023-02-28T03:07:45;9.65;;;5.63;;
43154;SDS011;34212;51.018;13.586;2023-02-28T03:12:50;9.70;;;5.13;;
43154;SDS011;34212;51.018;13.586;2023-02-28T03:18:32;7.00;;;5.45;;
43154;SDS011;34212;51.018;13.586;2023-02-28T03:34:24;11.07;;;6.13;;
43154;SDS011;34212;51.018;13.586;2023-02-28T03:45:04;9.95;;;5.55;;
43154;SDS011;34212;51.018;13.586;2023-02-28T03:50:23;9.10;;;5.78;;
43154;SDS011;34212;51.018;13.586;2023-02-28T03:55:29;8.30;;;5.88;;
43154;SDS011;34212;51.018;13.586;2023-02-28T04:00:37;10.88;;;6.43;;
43154;SDS011;34212;51.018;13.586;2023-02-28T04:05:45;10.18;;;6.07;;
43154;SDS011;34212;51.018;13.586;2023-02-28T04:10:55;11.70;;;6.93;;
43154;SDS011;34212;51.018;13.586;2023-02-28T04:16:18;8.93;;;5.70;;
43154;SDS011;34212;51.018;13.586;2023-02-28T04:21:35;7.65;;;6.03;;
43154;SDS011;34212;51.018;13.586;2023-02-28T04:26:45;12.60;;;7.25;;
43154;SDS011;34212;51.018;13.586;2023-02-28T04:31:48;9.55;;;6.45;;
43154;SDS011;34212;51.018;13.586;2023-02-28T04:36:50;9.90;;;6.93;;
43154;SDS011;34212;51.018;13.586;2023-02-28T04:42:12;12.85;;;7.53;;
43154;SDS011;34212;51.018;13.586;2023-02-28T04:47:14;12.27;;;6.65;;
43154;SDS011;34212;51.018;13.586;2023-02-28T04:52:15;12.23;;;7.47;;
43154;SDS011;34212;51.018;13.586;2023-02-28T04:57:17;10.57;;;7.10;;
43154;SDS011;34212;51.018;13.586;2023-02-28T05:02:18;11.65;;;7.78;;
43154;SDS011;34212;51.018;13.586;2023-02-28T05:07:22;12.05;;;7.80;;
43154;SDS011;34212;51.018;13.586;2023-02-28T05:12:23;10.90;;;7.72;;
43154;SDS011;34212;51.018;13.586;2023-02-28T05:17:25;12.77;;;7.28;;
43154;SDS011;34212;51.018;13.586;2023-02-28T05:22:26;15.02;;;8.77;;
43154;SDS011;34212;51.018;13.586;2023-02-28T05:27:27;13.98;;;8.63;;
43154;SDS011;34212;51.018;13.586;2023-02-28T05:32:29;12.70;;;8.73;;
43154;SDS011;34212;51.018;13.586;2023-02-28T05:37:31;10.50;;;7.22;;
43154;SDS011;34212;51.018;13.586;2023-02-28T05:42:32;12.82;;;7.85;;
43154;SDS011;34212;51.018;13.586;2023-02-28T05:47:34;12.48;;;8.18;;
43154;SDS011;34212;51.018;13.586;2023-02-28T05:52:36;13.27;;;9.18;;
43154;SDS011;34212;51.018;13.586;2023-02-28T05:57:38;15.88;;;8.60;;
43154;SDS011;34212;51.018;13.586;2023-02-28T06:02:40;15.45;;;8.88;;
43154;SDS011;34212;51.018;13.586;2023-02-28T06:07:42;12.20;;;7.95;;
43154;SDS011;34212;51.018;13.586;2023-02-28T06:12:44;12.90;;;7.70;;
43154;SDS011;34212;51.018;13.586;2023-02-28T06:17:45;14.38;;;9.32;;
43154;SDS011;34212;51.018;13.586;2023-02-28T06:22:48;12.77;;;7.35;;
43154;SDS011;34212;51.018;13.586;2023-02-28T06:27:51;12.07;;;8.02;;
43154;SDS011;34212;51.018;13.586;2023-02-28T06:32:54;13.70;;;8.68;;
43154;SDS011;34212;51.018;13.586;2023-02-28T06:37:55;12.27;;;8.25;;
43154;SDS011;34212;51.018;13.586;2023-02-28T06:42:57;13.07;;;7.70;;
43154;SDS011;34212;51.018;13.586;2023-02-28T06:47:58;15.13;;;9.05;;
43154;SDS011;34212;51.018;13.586;2023-02-28T06:53:01;14.80;;;8.53;;
43154;SDS011;34212;51.018;13.586;2023-02-28T06:58:02;13.15;;;9.07;;
43154;SDS011;34212;51.018;13.586;2023-02-28T07:03:04;15.07;;;8.68;;
43154;SDS011;34212;51.018;13.586;2023-02-28T07:08:05;14.90;;;9.50;;
43154;SDS011;34212;51.018;13.586;2023-02-28T07:13:07;18.38;;;8.02;;
43154;SDS011;34212;51.018;13.586;2023-02-28T07:18:09;15.15;;;8.52;;
43154;SDS011;34212;51.018;13.586;2023-02-28T07:23:11;13.85;;;8.15;;
43154;SDS011;34212;51.018;13.586;2023-02-28T07:28:13;16.38;;;8.80;;
43154;SDS011;34212;51.018;13.586;2023-02-28T07:33:15;15.40;;;8.63;;
43154;SDS011;34212;51.018;13.586;2023-02-28T07:38:16;14.80;;;8.82;;
43154;SDS011;34212;51.018;13.586;2023-02-28T07:43:18;15.23;;;9.48;;
43154;SDS011;34212;51.018;13.586;2023-02-28T07:48:19;14.50;;;8.75;;
43154;SDS011;34212;51.018;13.586;2023-02-28T07:53:20;14.55;;;8.77;;
43154;SDS011;34212;51.018;13.586;2023-02-28T07:58:22;13.75;;;8.75;;
43154;SDS011;34212;51.018;13.586;2023-02-28T08:03:24;19.08;;;9.65;;
43154;SDS011;34212;51.018;13.586;2023-02-28T08:08:26;14.30;;;8.85;;
43154;SDS011;34212;51.018;13.586;2023-02-28T08:13:32;13.07;;;8.82;;
43154;SDS011;34212;51.018;13.586;2023-02-28T08:18:33;13.65;;;8.13;;
43154;SDS011;34212;51.018;13.586;2023-02-28T08:23:35;12.73;;;8.20;;
43154;SDS011;34212;51.018;13.586;2023-02-28T08:28:37;12.20;;;8.45;;
43154;SDS011;34212;51.018;13.586;2023-02-28T08:33:39;13.25;;;8.75;;
43154;SDS011;34212;51.018;13.586;2023-02-28T08:38:41;12.07;;;8.45;;
43154;SDS011;34212;51.018;13.586;2023-02-28T08:43:42;14.00;;;9.00;;
43154;SDS011;34212;51.018;13.586;2023-02-28T08:48:44;14.75;;;9.23;;
43154;SDS011;34212;51.018;13.586;2023-02-28T08:53:46;14.10;;;9.10;;
43154;SDS011;34212;51.018;13.586;2023-02-28T08:58:50;14.82;;;8.75;;
43154;SDS011;34212;51.018;13.586;2023-02-28T09:03:52;12.80;;;9.00;;
43154;SDS011;34212;51.018;13.586;2023-02-28T09:08:59;13.75;;;7.78;;
43154;SDS011;34212;51.018;13.586;2023-02-28T09:14:02;12.60;;;8.13;;
43154;SDS011;34212;51.018;13.586;2023-02-28T09:19:04;12.57;;;7.83;;
43154;SDS011;34212;51.018;13.586;2023-02-28T09:24:06;14.07;;;8.15;;
43154;SDS011;34212;51.018;13.586;2023-02-28T09:29:08;15.40;;;8.32;;
43154;SDS011;34212;51.018;13.586;2023-02-28T09:34:09;12.38;;;7.68;;
43154;SDS011;34212;51.018;13.586;2023-02-28T09:39:11;13.57;;;8.05;;
43154;SDS011;34212;51.018;13.586;2023-02-28T09:44:18;10.85;;;7.63;;
43154;SDS011;34212;51.018;13.586;2023-02-28T09:49:44;12.70;;;7.38;;
43154;SDS011;34212;51.018;13.586;2023-02-28T09:54:48;10.38;;;7.55;;
43154;SDS011;34212;51.018;13.586;2023-02-28T10:05:20;14.00;;;7.20;;
43154;SDS011;34212;51.018;13.586;2023-02-28T10:10:28;11.23;;;6.63;;
43154;SDS011;34212;51.018;13.586;2023-02-28T10:15:36;9.82;;;7.07;;
43154;SDS011;34212;51.018;13.586;2023-02-28T10:20:38;14.02;;;8.95;;
43154;SDS011;34212;51.018;13.586;2023-02-28T10:25:42;12.15;;;7.22;;
43154;SDS011;34212;51.018;13.586;2023-02-28T10:30:50;10.07;;;6.55;;
43154;SDS011;34212;51.018;13.586;2023-02-28T10:35:53;10.30;;;6.93;;
43154;SDS011;34212;51.018;13.586;2023-02-28T10:41:03;9.30;;;5.93;;
43154;SDS011;34212;51.018;13.586;2023-02-28T10:51:11;11.40;;;8.07;;
43154;SDS011;34212;51.018;13.586;2023-02-28T10:56:17;11.38;;;7.30;;
43154;SDS011;34212;51.018;13.586;2023-02-28T11:06:39;9.93;;;7.40;;
43154;SDS011;34212;51.018;13.586;2023-02-28T11:11:45;10.45;;;7.00;;
43154;SDS011;34212;51.018;13.586;2023-02-28T11:16:48;13.05;;;7.80;;
43154;SDS011;34212;51.018;13.586;2023-02-28T11:26:56;12.00;;;8.15;;
43154;SDS011;34212;51.018;13.586;2023-02-28T11:37:02;11.73;;;8.30;;
43154;SDS011;34212;51.018;13.586;2023-02-28T12:04:04;13.52;;;8.23;;
43154;SDS011;34212;51.018;13.586;2023-02-28T12:14:50;12.48;;;8.32;;
43154;SDS011;34212;51.018;13.586;2023-02-28T12:20:24;11.90;;;8.15;;
43154;SDS011;34212;51.018;13.586;2023-02-28T12:25:44;12.60;;;8.40;;
43154;SDS011;34212;51.018;13.586;2023-02-28T12:31:14;15.38;;;8.73;;
43154;SDS011;34212;51.018;13.586;2023-02-28T12:36:23;14.02;;;8.35;;
43154;SDS011;34212;51.018;13.586;2023-02-28T12:41:29;13.60;;;8.57;;
43154;SDS011;34212;51.018;13.586;2023-02-28T12:46:41;10.43;;;7.35;;
43154;SDS011;34212;51.018;13.586;2023-02-28T12:51:45;12.48;;;7.72;;
43154;SDS011;34212;51.018;13.586;2023-02-28T12:56:50;11.95;;;8.30;;
43154;SDS011;34212;51.018;13.586;2023-02-28T13:12:38;11.85;;;7.25;;
43154;SDS011;34212;51.018;13.586;2023-02-28T13:17:53;11.63;;;7.68;;
43154;SDS011;34212;51.018;13.586;2023-02-28T13:22:57;11.05;;;8.13;;
43154;SDS011;34212;51.018;13.586;2023-02-28T13:27:59;13.32;;;9.00;;
43154;SDS011;34212;51.018;13.586;2023-02-28T13:38:33;15.88;;;9.85;;
43154;SDS011;34212;51.018;13.586;2023-02-28T14:00:15;13.70;;;9.45;;
43154;SDS011;34212;51.018;13.586;2023-02-28T14:05:33;17.83;;;10.13;;
43154;SDS011;34212;51.018;13.586;2023-02-28T14:10:42;13.50;;;9.03;;
43154;SDS011;34212;51.018;13.586;2023-02-28T14:15:47;12.88;;;9.40;;
43154;SDS011;34212;51.018;13.586;2023-02-28T14:21:14;17.67;;;11.68;;
43154;SDS011;34212;51.018;13.586;2023-02-28T14:26:30;17.25;;;9.55;;
43154;SDS011;34212;51.018;13.586;2023-02-28T14:31:52;18.55;;;10.45;;
43154;SDS011;34212;51.018;13.586;2023-02-28T14:37:00;22.80;;;10.48;;
43154;SDS011;34212;51.018;13.586;2023-02-28T14:42:03;16.30;;;10.55;;
43154;SDS011;34212;51.018;13.586;2023-02-28T14:47:32;13.73;;;10.10;;
43154;SDS011;34212;51.018;13.586;2023-02-28T14:52:36;15.25;;;9.82;;
43154;SDS011;34212;51.018;13.586;2023-02-28T14:57:51;14.52;;;10.27;;
43154;SDS011;34212;51.018;13.586;2023-02-28T15:02:55;18.80;;;12.02;;
43154;SDS011;34212;51.018;13.586;2023-02-28T15:13:18;14.35;;;9.45;;
43154;SDS011;34212;51.018;13.586;2023-02-28T15:23:21;14.45;;;8.98;;
43154;SDS011;34212;51.018;13.586;2023-02-28T15:28:23;14.38;;;9.25;;
43154;SDS011;34212;51.018;13.586;2023-02-28T15:33:29;15.52;;;10.57;;
43154;SDS011;34212;51.018;13.586;2023-02-28T15:38:33;16.33;;;10.57;;
43154;SDS011;34212;51.018;13.586;2023-02-28T15:43:37;16.17;;;9.77;;
43154;SDS011;34212;51.018;13.586;2023-02-28T15:48:45;15.35;;;10.65;;
43154;SDS011;34212;51.018;13.586;2023-02-28T15:53:57;16.50;;;10.90;;
43154;SDS011;34212;51.018;13.586;2023-02-28T15:59:03;16.83;;;11.07;;
43154;SDS011;34212;51.018;13.586;2023-02-28T16:04:15;15.80;;;11.02;;
43154;SDS011;34212;51.018;13.586;2023-02-28T16:09:18;16.73;;;10.80;;
43154;SDS011;34212;51.018;13.586;2023-02-28T16:14:24;21.63;;;13.20;;
43154;SDS011;34212;51.018;13.586;2023-02-28T16:19:31;15.68;;;10.25;;
43154;SDS011;34212;51.018;13.586;2023-02-28T16:29:36;19.98;;;11.18;;
43154;SDS011;34212;51.018;13.586;2023-02-28T16:34:38;16.60;;;11.15;;
43154;SDS011;34212;51.018;13.586;2023-02-28T16:39:40;17.45;;;11.52;;
43154;SDS011;34212;51.018;13.586;2023-02-28T16:44:42;16.95;;;10.35;;
43154;SDS011;34212;51.018;13.586;2023-02-28T16:49:44;17.35;;;11.32;;
43154;SDS011;34212;51.018;13.586;2023-02-28T16:54:45;17.83;;;11.07;;
43154;SDS011;34212;51.018;13.586;2023-02-28T16:59:47;15.75;;;11.38;;
43154;SDS011;34212;51.018;13.586;2023-02-28T17:04:51;17.00;;;12.00;;
43154;SDS011;34212;51.018;13.586;2023-02-28T17:09:53;19.13;;;11.60;;
43154;SDS011;34212;51.018;13.586;2023-02-28T17:14:54;16.63;;;11.95;;
43154;SDS011;34212;51.018;13.586;2023-02-28T17:19:56;20.00;;;11.82;;
43154;SDS011;34212;51.018;13.586;2023-02-28T17:24:57;18.80;;;12.60;;
43154;SDS011;34212;51.018;13.586;2023-02-28T17:30:00;21.80;;;13.17;;
43154;SDS011;34212;51.018;13.586;2023-02-28T17:35:02;19.35;;;13.43;;
43154;SDS011;34212;51.018;13.586;2023-02-28T17:40:03;21.50;;;13.93;;
43154;SDS011;34212;51.018;13.586;2023-02-28T17:45:06;21.57;;;13.20;;
43154;SDS011;34212;51.018;13.586;2023-02-28T17:50:12;19.20;;;12.77;;
43154;SDS011;34212;51.018;13.586;2023-02-28T17:55:16;19.20;;;11.85;;
43154;SDS011;34212;51.018;13.586;2023-02-28T18:05:24;19.85;;;12.40;;
43154;SDS011;34212;51.018;13.586;2023-02-28T18:10:26;18.90;;;12.68;;
43154;SDS011;34212;51.018;13.586;2023-02-28T18:15:28;23.27;;;14.25;;
43154;SDS011;34212;51.018;13.586;2023-02-28T18:20:29;22.65;;;14.00;;
43154;SDS011;34212;51.018;13.586;2023-02-28T18:25:31;22.40;;;13.68;;
43154;SDS011;34212;51.018;13.586;2023-02-28T18:30:34;25.65;;;13.80;;
43154;SDS011;34212;51.018;13.586;2023-02-28T18:35:37;22.38;;;13.32;;
43154;SDS011;34212;51.018;13.586;2023-02-28T18:40:40;24.90;;;14.57;;
43154;SDS011;34212;51.018;13.586;2023-02-28T18:45:43;23.05;;;15.68;;
43154;SDS011;34212;51.018;13.586;2023-02-28T18:50:45;26.73;;;15.82;;
43154;SDS011;34212;51.018;13.586;2023-02-28T18:55:47;26.23;;;15.15;;
43154;SDS011;34212;51.018;13.586;2023-02-28T19:00:48;23.88;;;14.38;;
43154;SDS011;34212;51.018;13.586;2023-02-28T19:05:57;22.67;;;14.77;;
43154;SDS011;34212;51.018;13.586;2023-02-28T19:11:05;31.88;;;17.02;;
43154;SDS011;34212;51.018;13.586;2023-02-28T19:16:11;34.67;;;19.15;;
43154;SDS011;34212;51.018;13.586;2023-02-28T19:21:15;32.78;;;17.38;;
43154;SDS011;34212;51.018;13.586;2023-02-28T19:26:19;31.05;;;17.05;;
43154;SDS011;34212;51.018;13.586;2023-02-28T19:31:23;29.35;;;17.55;;
43154;SDS011;34212;51.018;13.586;2023-02-28T19:36:26;30.42;;;17.70;;
43154;SDS011;34212;51.018;13.586;2023-02-28T19:41:28;27.90;;;17.30;;
43154;SDS011;34212;51.018;13.586;2023-02-28T19:46:30;28.30;;;17.38;;
43154;SDS011;34212;51.018;13.586;2023-02-28T19:51:32;30.70;;;19.50;;
43154;SDS011;34212;51.018;13.586;2023-02-28T19:56:34;29.90;;;15.03;;
43154;SDS011;34212;51.018;13.586;2023-02-28T20:01:36;22.58;;;13.25;;
43154;SDS011;34212;51.018;13.586;2023-02-28T20:06:38;20.67;;;14.17;;
43154;SDS011;34212;51.018;13.586;2023-02-28T20:11:40;20.83;;;14.27;;
43154;SDS011;34212;51.018;13.586;2023-02-28T20:16:41;22.55;;;14.05;;
43154;SDS011;34212;51.018;13.586;2023-02-28T20:21:44;20.88;;;14.27;;
43154;SDS011;34212;51.018;13.586;2023-02-28T20:26:45;23.52;;;15.45;;
43154;SDS011;34212;51.018;13.586;2023-02-28T20:31:47;25.35;;;15.43;;
43154;SDS011;34212;51.018;13.586;2023-02-28T20:36:48;24.55;;;16.02;;
43154;SDS011;34212;51.018;13.586;2023-02-28T20:41:50;23.08;;;14.85;;
43154;SDS011;34212;51.018;13.586;2023-02-28T20:46:51;20.52;;;13.85;;
43154;SDS011;34212;51.018;13.586;2023-02-28T20:51:53;22.65;;;13.85;;
43154;SDS011;34212;51.018;13.586;2023-02-28T20:56:55;23.70;;;15.05;;
43154;SDS011;34212;51.018;13.586;2023-02-28T21:01:56;24.17;;;15.48;;
43154;SDS011;34212;51.018;13.586;2023-02-28T21:06:58;22.05;;;14.65;;
43154;SDS011;34212;51.018;13.586;2023-02-28T21:11:59;28.38;;;17.23;;
43154;SDS011;34212;51.018;13.586;2023-02-28T21:17:01;23.98;;;14.93;;
43154;SDS011;34212;51.018;13.586;2023-02-28T21:22:02;20.60;;;15.32;;
43154;SDS011;34212;51.018;13.586;2023-02-28T21:27:04;26.88;;;16.23;;
43154;SDS011;34212;51.018;13.586;2023-02-28T21:32:05;24.70;;;14.80;;
43154;SDS011;34212;51.018;13.586;2023-02-28T21:37:07;21.23;;;14.18;;
43154;SDS011;34212;51.018;13.586;2023-02-28T21:42:10;21.60;;;14.82;;
43154;SDS011;34212;51.018;13.586;2023-02-28T21:47:13;23.33;;;14.20;;
43154;SDS011;34212;51.018;13.586;2023-02-28T21:52:14;21.95;;;14.35;;
43154;SDS011;34212;51.018;13.586;2023-02-28T21:57:16;26.08;;;15.25;;
43154;SDS011;34212;51.018;13.586;2023-02-28T22:02:17;22.88;;;14.63;;
43154;SDS011;34212;51.018;13.586;2023-02-28T22:07:19;20.90;;;14.40;;
43154;SDS011;34212;51.018;13.586;2023-02-28T22:12:20;21.73;;;14.35;;
43154;SDS011;34212;51.018;13.586;2023-02-28T22:17:21;28.17;;;15.52;;
43154;SDS011;34212;51.018;13.586;2023-02-28T22:22:23;20.90;;;13.88;;
43154;SDS011;34212;51.018;13.586;2023-02-28T22:27:26;23.33;;;14.57;;
43154;SDS011;34212;51.018;13.586;2023-02-28T22:32:27;27.65;;;15.45;;
43154;SDS011;34212;51.018;13.586;2023-02-28T22:37:28;26.33;;;15.55;;
43154;SDS011;34212;51.018;13.586;2023-02-28T22:42:33;24.23;;;14.60;;
43154;SDS011;34212;51.018;13.586;2023-02-28T22:47:35;21.13;;;14.95;;
43154;SDS011;34212;51.018;13.586;2023-02-28T22:52:37;23.80;;;14.55;;
43154;SDS011;34212;51.018;13.586;2023-02-28T22:57:40;19.92;;;13.40;;
43154;SDS011;34212;51.018;13.586;2023-02-28T23:02:42;24.90;;;13.93;;
43154;SDS011;34212;51.018;13.586;2023-02-28T23:07:45;23.08;;;14.23;;
43154;SDS011;34212;51.018;13.586;2023-02-28T23:12:46;22.45;;;13.68;;
43154;SDS011;34212;51.018;13.586;2023-02-28T23:17:51;22.40;;;13.93;;
43154;SDS011;34212;51.018;13.586;2023-02-28T23:22:52;22.95;;;13.60;;
43154;SDS011;34212;51.018;13.586;2023-02-28T23:27:54;26.40;;;14.93;;
43154;SDS011;34212;51.018;13.586;2023-02-28T23:32:56;28.23;;;15.63;;
43154;SDS011;34212;51.018;13.586;2023-02-28T23:37:58;21.75;;;15.65;;
43154;SDS011;34212;51.018;13.586;2023-02-28T23:42:59;24.13;;;13.60;;
43154;SDS011;34212;51.018;13.586;2023-02-28T23:48:02;22.15;;;13.88;;
43154;SDS011;34212;51.018;13.586;2023-02-28T23:53:04;24.73;;;15.07;;
43154;SDS011;34212;51.018;13.586;2023-02-28T23:58:05;29.10;;;14.30;;
